Time;durP1;ratioP1;P1;durP2;ratioP2;P2;SDS_P1;SDS_P2;PMS_P1;PMS_P2;Temp;Humidity;BMP_temperature;BMP_pressure;BME280_temperature;BME280_humidity;BME280_pressure;Samples;Min_cycle;Max_cycle;Signal;HPM_P1;HPM_P2
2022/04/19 00:00:34;;;;;;;18.17;14.77;;;;;;;9.09;nan;101505.47;5052266;28;20517;-51
2022/04/19 00:03:00;;;;;;;18.20;13.35;;;;;;;9.12;nan;101511.53;5052298;28;20067;-49
2022/04/19 00:05:26;;;;;;;16.10;12.60;;;;;;;8.63;nan;101426.56;5051375;28;20474;-46
2022/04/19 00:07:52;;;;;;;14.82;13.20;;;;;;;9.04;nan;101501.19;5051281;28;20025;-53
2022/04/19 00:10:17;;;;;;;15.23;13.52;;;;;;;8.83;nan;101475.25;5051085;28;20060;-49
2022/04/19 00:12:43;;;;;;;15.40;13.73;;;;;;;8.94;nan;101507.44;5052350;28;20041;-51
2022/04/19 00:15:09;;;;;;;14.82;13.02;;;;;;;8.88;nan;101494.41;5051972;28;20050;-51
2022/04/19 00:17:34;;;;;;;15.27;13.48;;;;;;;8.80;nan;101501.53;5051244;28;20171;-50
2022/04/19 00:20:00;;;;;;;16.42;14.05;;;;;;;8.79;nan;101509.41;5052405;28;20115;-50
2022/04/19 00:22:27;;;;;;;16.58;13.77;;;;;;;8.48;nan;101461.75;5052200;28;20048;-50
2022/04/19 00:24:53;;;;;;;16.13;13.73;;;;;;;8.32;nan;101432.22;5052237;28;20499;-50
2022/04/19 00:27:18;;;;;;;16.45;14.75;;;;;;;8.38;nan;101449.63;5052079;28;20124;-52
2022/04/19 00:29:45;;;;;;;15.68;14.07;;;;;;;7.48;nan;101305.75;5051952;28;20043;-51
2022/04/19 00:32:11;;;;;;;18.02;14.95;;;;;;;8.58;nan;101491.38;5052352;28;20390;-50
2022/04/19 00:34:38;;;;;;;17.75;14.63;;;;;;;8.16;nan;101424.56;5052610;28;20041;-49
2022/04/19 00:37:04;;;;;;;20.77;15.25;;;;;;;8.45;nan;101491.53;5052355;28;20060;-49
2022/04/19 00:39:29;;;;;;;16.15;14.23;;;;;;;8.40;nan;101487.25;5051766;28;20071;-52
2022/04/19 00:41:56;;;;;;;16.92;14.77;;;;;;;8.00;nan;101420.44;5051916;28;20040;-49
2022/04/19 00:44:23;;;;;;;17.17;15.35;;;;;;;7.79;nan;101397.97;5051650;28;20040;-48
2022/04/19 00:46:49;;;;;;;20.35;15.85;;;;;;;7.89;nan;101418.78;5050982;28;20375;-49
2022/04/19 00:49:15;;;;;;;18.45;15.88;;;;;;;8.10;nan;101463.97;5051595;28;20141;-49
2022/04/19 00:51:40;;;;;;;18.67;14.63;;;;;;;8.14;nan;101465.69;5051717;28;20033;-50
2022/04/19 00:54:06;;;;;;;21.35;15.63;;;;;;;7.73;nan;101393.66;5051785;28;20025;-51
2022/04/19 00:56:32;;;;;;;18.63;16.63;;;;;;;8.04;nan;101448.31;5051585;28;20489;-49
2022/04/19 00:58:57;;;;;;;20.98;16.15;;;;;;;7.97;nan;101452.75;5050339;28;20094;-51
2022/04/19 01:01:22;;;;;;;19.65;16.33;;;;;;;8.01;nan;101461.47;5050640;28;20063;-49
2022/04/19 01:03:48;;;;;;;17.92;16.05;;;;;;;7.94;nan;101453.66;5051634;28;20083;-47
2022/04/19 01:06:13;;;;;;;17.13;15.32;;;;;;;7.62;nan;101398.13;5051717;28;20033;-51
2022/04/19 01:08:38;;;;;;;19.25;16.33;;;;;;;7.88;nan;101442.41;5051940;28;20032;-52
2022/04/19 01:13:47;;;;;;;21.30;17.42;;;;;;;7.82;nan;101450.34;5051896;28;20048;-52
2022/04/19 01:16:13;;;;;;;19.23;15.60;;;;;;;7.82;nan;101453.81;5050250;28;20033;-51
2022/04/19 01:18:38;;;;;;;18.45;16.45;;;;;;;7.45;nan;101391.34;5050398;28;20402;-52
2022/04/19 01:21:04;;;;;;;19.33;15.88;;;;;;;7.52;nan;101406.13;5050408;28;20065;-53
2022/04/19 01:23:29;;;;;;;18.48;15.15;;;;;;;7.67;nan;101426.94;5051667;28;20113;-48
2022/04/19 01:25:57;;;;;;;19.42;16.83;;;;;;;7.69;nan;101452.22;5051422;28;20025;-51
2022/04/19 01:28:23;;;;;;;19.15;16.60;;;;;;;7.17;nan;101352.38;5051607;28;20036;-49
2022/04/19 01:30:54;;;;;;;19.17;17.08;;;;;;;7.56;nan;101418.31;5051442;28;20041;-52
2022/04/19 01:33:20;;;;;;;20.73;17.23;;;;;;;7.69;nan;101440.88;5050496;28;20061;-52
2022/04/19 01:35:46;;;;;;;22.27;17.30;;;;;;;7.36;nan;101392.31;5051593;28;20044;-51
2022/04/19 01:38:11;;;;;;;20.85;18.10;;;;;;;7.69;nan;101444.38;5050288;28;20041;-51
2022/04/19 01:40:36;;;;;;;20.58;16.67;;;;;;;7.62;nan;101426.97;5050929;28;20091;-47
2022/04/19 01:43:04;;;;;;;18.17;16.23;;;;;;;7.52;nan;101409.63;5051342;28;20496;-48
2022/04/19 01:45:31;;;;;;;19.50;15.95;;;;;;;7.69;nan;101448.72;5051468;28;20036;-52
2022/04/19 01:47:58;;;;;;;18.17;16.25;;;;;;;7.70;nan;101450.47;5051471;28;20116;-50
2022/04/19 01:50:27;;;;;;;21.05;16.60;;;;;;;7.64;nan;101435.69;5051301;28;20075;-52
2022/04/19 01:52:54;;;;;;;19.52;16.52;;;;;;;7.35;nan;101374.91;5050084;28;20069;-54
2022/04/19 01:55:21;;;;;;;25.02;18.08;;;;;;;7.61;nan;101427.00;5049804;28;20529;-50
2022/04/19 01:57:48;;;;;;;20.65;17.17;;;;;;;7.67;nan;101435.66;5035542;28;20108;-53
2022/04/19 02:00:15;;;;;;;20.08;17.98;;;;;;;7.29;nan;101370.59;5053520;28;20036;-48
2022/04/19 02:02:43;;;;;;;21.38;17.27;;;;;;;7.66;nan;101446.13;5054671;28;20060;-55
2022/04/19 02:05:09;;;;;;;22.95;18.13;;;;;;;7.54;nan;101412.22;5053526;28;20028;-52
2022/04/19 02:07:42;;;;;;;21.05;18.67;;;;;;;7.60;nan;101426.13;5054584;28;20120;-50
2022/04/19 02:10:08;;;;;;;21.63;17.20;;;;;;;7.48;nan;101423.63;5054684;28;20037;-48
2022/04/19 02:12:34;;;;;;;20.63;18.42;;;;;;;7.35;nan;101395.84;5053614;28;20138;-49
2022/04/19 02:14:59;;;;;;;20.25;17.60;;;;;;;7.44;nan;101424.56;5054529;28;20033;-53
2022/04/19 02:17:25;;;;;;;22.52;17.95;;;;;;;7.34;nan;101415.03;5054755;28;20075;-54
2022/04/19 02:20:01;;;;;;;21.10;18.75;;;;;;;7.31;nan;101422.94;5054580;28;20032;-51
2022/04/19 02:22:27;;;;;;;23.65;18.30;;;;;;;7.28;nan;101418.59;5053247;28;20119;-46
2022/04/19 02:24:56;;;;;;;22.23;18.75;;;;;;;7.24;nan;101423.84;5054741;28;20082;-47
2022/04/19 02:27:24;;;;;;;24.13;19.20;;;;;;;7.08;nan;101402.22;5054290;28;20079;-56
2022/04/19 02:29:50;;;;;;;22.77;19.98;;;;;;;7.11;nan;101415.28;5053171;28;20494;-50
2022/04/19 02:32:15;;;;;;;22.17;19.15;;;;;;;6.65;nan;101352.00;5054144;28;20033;-50
2022/04/19 02:34:41;;;;;;;21.80;19.42;;;;;;;7.01;nan;101412.72;5054042;28;20466;-52
2022/04/19 02:37:06;;;;;;;22.08;19.77;;;;;;;6.97;nan;101411.91;5054014;28;20025;-50
2022/04/19 02:39:31;;;;;;;23.88;19.83;;;;;;;6.93;nan;101409.31;5054203;28;20065;-49
2022/04/19 02:41:57;;;;;;;24.40;20.75;;;;;;;6.55;nan;101346.84;5054020;28;20112;-51
2022/04/19 02:44:22;;;;;;;21.90;19.58;;;;;;;6.81;nan;101402.44;5052688;28;20098;-47
2022/04/19 02:46:49;;;;;;;25.83;20.88;;;;;;;6.67;nan;101375.53;5053887;28;20032;-53
2022/04/19 02:49:15;;;;;;;24.48;20.52;;;;;;;6.85;nan;101404.16;5053794;28;20087;-49
2022/04/19 02:51:40;;;;;;;24.98;21.00;;;;;;;6.44;nan;101335.59;5053944;28;20551;-53
2022/04/19 02:54:06;;;;;;;24.33;21.15;;;;;;;6.78;nan;101411.19;5053874;28;20082;-50
2022/04/19 02:56:31;;;;;;;24.52;19.90;;;;;;;6.66;nan;101403.41;5053716;28;20067;-49
2022/04/19 02:58:57;;;;;;;24.52;19.52;;;;;;;6.60;nan;101393.00;5053662;28;20032;-52
2022/04/19 03:01:22;;;;;;;26.05;20.60;;;;;;;6.61;nan;101406.97;5053719;28;20032;-50
2022/04/19 03:03:47;;;;;;;26.40;20.15;;;;;;;6.62;nan;101404.34;5053443;28;20041;-47
2022/04/19 03:06:13;;;;;;;23.17;19.48;;;;;;;6.59;nan;101401.75;5053662;28;20056;-49
2022/04/19 03:08:38;;;;;;;24.45;20.63;;;;;;;6.20;nan;101331.41;5052581;28;20057;-53
2022/04/19 03:11:03;;;;;;;25.60;20.83;;;;;;;6.49;nan;101387.00;5053524;28;20481;-50
2022/04/19 03:13:29;;;;;;;27.33;21.15;;;;;;;6.52;nan;101400.03;5053588;28;20420;-49
2022/04/19 03:15:55;;;;;;;24.38;21.75;;;;;;;6.43;nan;101394.88;5052153;28;20441;-52
2022/04/19 03:18:20;;;;;;;27.17;22.55;;;;;;;6.48;nan;101397.47;5053441;28;20029;-53
2022/04/19 03:20:46;;;;;;;27.52;22.33;;;;;;;6.31;nan;101370.53;5052200;28;20072;-51
2022/04/19 03:28:45;;;;;;;27.55;22.77;;;;;;;6.10;nan;101348.88;5052218;28;21279;-53
2022/04/19 03:31:12;;;;;;;29.63;22.70;;;;;;;6.37;nan;101397.53;5052871;28;20037;-52
2022/04/19 03:33:38;;;;;;;27.30;21.77;;;;;;;6.35;nan;101393.19;5052171;28;20083;-48
2022/04/19 03:36:04;;;;;;;28.10;23.13;;;;;;;5.89;nan;101314.19;5051973;28;20120;-49
2022/04/19 03:38:29;;;;;;;27.35;22.05;;;;;;;6.21;nan;101381.09;5053170;28;20124;-53
2022/04/19 03:40:55;;;;;;;28.98;23.60;;;;;;;5.86;nan;101317.69;5051806;28;20037;-51
2022/04/19 03:43:20;;;;;;;28.98;23.25;;;;;;;6.24;nan;101395.88;5052804;28;20040;-50
2022/04/19 03:45:45;;;;;;;28.40;22.55;;;;;;;5.82;nan;101315.06;5052229;28;20037;-49
2022/04/19 03:48:13;;;;;;;29.10;22.77;;;;;;;6.20;nan;101392.41;5052783;28;20037;-55
2022/04/19 03:50:39;;;;;;;26.70;22.45;;;;;;;6.07;nan;101372.44;5052508;28;20037;-49
2022/04/19 03:53:05;;;;;;;28.05;21.95;;;;;;;5.77;nan;101324.69;5052592;28;20039;-53
2022/04/19 03:55:30;;;;;;;28.02;21.75;;;;;;;6.02;nan;101362.88;5051104;28;20053;-52
2022/04/19 03:57:55;;;;;;;29.80;23.85;;;;;;;6.06;nan;101372.44;5034401;28;20040;-50
2022/04/19 04:00:21;;;;;;;29.95;24.48;;;;;;;6.08;nan;101391.59;5052405;28;20037;-50
2022/04/19 04:02:46;;;;;;;28.23;22.77;;;;;;;6.06;nan;101389.00;5052444;28;20462;-53
2022/04/19 04:05:12;;;;;;;36.90;23.42;;;;;;;6.05;nan;101389.88;5051213;28;20028;-51
2022/04/19 04:07:38;;;;;;;28.10;24.17;;;;;;;5.79;nan;101354.25;5050974;28;20044;-53
2022/04/19 04:10:04;;;;;;;30.02;24.48;;;;;;;5.98;nan;101388.16;5052287;28;20124;-51
2022/04/19 04:12:29;;;;;;;29.20;24.15;;;;;;;5.57;nan;101320.41;5050988;28;20029;-54
2022/04/19 04:14:55;;;;;;;33.25;25.08;;;;;;;5.96;nan;101387.31;5050926;28;20045;-51
2022/04/19 04:17:20;;;;;;;32.85;25.02;;;;;;;5.61;nan;101335.19;5051124;28;20107;-51
2022/04/19 04:19:46;;;;;;;33.97;26.45;;;;;;;5.53;nan;101323.91;5052030;28;20033;-51
2022/04/19 04:22:11;;;;;;;35.88;27.25;;;;;;;5.92;nan;101380.38;5052221;28;20040;-51
2022/04/19 04:24:36;;;;;;;34.15;26.80;;;;;;;5.93;nan;101384.72;5050742;28;20033;-53
2022/04/19 04:27:02;;;;;;;37.95;29.38;;;;;;;5.54;nan;101307.38;5051908;28;20032;-53
2022/04/19 04:29:27;;;;;;;35.72;28.40;;;;;;;5.40;nan;101285.66;5051799;28;20420;-53
2022/04/19 04:31:53;;;;;;;35.92;30.02;;;;;;;5.88;nan;101364.69;5052046;28;20037;-52
2022/04/19 04:34:18;;;;;;;38.10;29.00;;;;;;;5.91;nan;101380.38;5052055;28;20029;-51
2022/04/19 04:36:43;;;;;;;37.08;29.33;;;;;;;5.78;nan;101363.00;5050834;28;20041;-54
2022/04/19 04:39:09;;;;;;;36.75;28.13;;;;;;;5.88;nan;101391.69;5050678;28;20033;-51
2022/04/19 04:41:34;;;;;;;37.80;29.35;;;;;;;5.88;nan;101389.09;5052336;28;20037;-47
2022/04/19 04:44:01;;;;;;;37.95;29.08;;;;;;;5.55;nan;101330.00;5051631;28;20029;-52
2022/04/19 04:51:53;;;;;;;34.72;28.33;;;;;;;5.89;nan;101379.50;5051805;28;20052;-48
2022/04/19 04:54:18;;;;;;;39.08;29.08;;;;;;;5.87;nan;101384.72;5050169;28;20432;-53
2022/04/19 04:56:44;;;;;;;34.88;29.30;;;;;;;5.87;nan;101370.78;5051608;28;20486;-51
2022/04/19 04:59:09;;;;;;;39.78;30.17;;;;;;;5.95;nan;101372.53;5051706;28;20041;-51
2022/04/19 05:01:34;;;;;;;36.55;28.13;;;;;;;5.99;nan;101370.72;5051563;28;20037;-53
2022/04/19 05:04:00;;;;;;;40.20;29.17;;;;;;;6.15;nan;101391.56;5051527;28;20035;-55
2022/04/19 05:06:25;;;;;;;36.03;29.02;;;;;;;6.17;nan;101388.94;5050421;28;20072;-52
2022/04/19 05:08:50;;;;;;;34.35;28.33;;;;;;;6.12;nan;101378.53;5051622;28;20065;-52
2022/04/19 05:11:16;;;;;;;37.05;28.83;;;;;;;6.22;nan;101395.88;5051438;28;20362;-53
2022/04/19 05:13:41;;;;;;;38.38;31.13;;;;;;;6.23;nan;101387.16;5051787;28;20079;-50
2022/04/19 05:16:08;;;;;;;35.22;30.45;;;;;;;6.22;nan;101381.94;5051461;28;20029;-51
2022/04/19 05:18:33;;;;;;;37.80;29.50;;;;;;;6.01;nan;101333.25;5050382;28;20173;-53
2022/04/19 05:20:58;;;;;;;41.03;30.52;;;;;;;6.40;nan;101394.03;5051591;28;20037;-56
2022/04/19 05:23:24;;;;;;;39.83;31.50;;;;;;;6.55;nan;101400.03;5051401;28;20043;-50
2022/04/19 05:25:49;;;;;;;35.97;30.33;;;;;;;6.20;nan;101331.41;5051363;28;20099;-49
2022/04/19 05:28:14;;;;;;;37.05;31.35;;;;;;;6.25;nan;101329.63;5051600;28;20033;-50
2022/04/19 05:30:40;;;;;;;37.88;30.48;;;;;;;6.55;nan;101366.03;5050226;28;20385;-50
2022/04/19 05:33:05;;;;;;;35.78;29.15;;;;;;;6.76;nan;101392.03;5054193;28;20044;-51
2022/04/19 05:35:31;;;;;;;42.50;31.40;;;;;;;6.72;nan;101378.97;5054881;28;20069;-52
2022/04/19 05:37:58;;;;;;;36.00;30.70;;;;;;;6.83;nan;101379.72;5054921;28;20025;-51
2022/04/19 05:40:23;;;;;;;38.78;31.23;;;;;;;6.60;nan;101326.75;5055031;28;20045;-53
2022/04/19 05:42:48;;;;;;;35.75;29.38;;;;;;;7.08;nan;101401.34;5055128;28;20036;-54
2022/04/19 05:45:14;;;;;;;35.97;29.63;;;;;;;7.21;nan;101405.56;5054875;28;20133;-54
2022/04/19 05:47:39;;;;;;;36.03;29.45;;;;;;;7.38;nan;101404.50;5054964;28;20110;-48
2022/04/19 05:50:05;;;;;;;34.63;29.40;;;;;;;6.33;nan;101225.88;5054657;28;20040;-53
2022/04/19 05:52:31;;;;;;;34.20;28.00;;;;;;;7.62;nan;101395.53;5053124;28;20037;-50
2022/04/19 05:54:56;;;;;;;32.17;27.73;;;;;;;7.79;nan;101400.59;5054375;28;20470;-55
2022/04/19 05:57:22;;;;;;;31.48;26.55;;;;;;;7.90;nan;101411.81;5053221;28;20033;-49
2022/04/19 05:59:47;;;;;;;30.90;26.52;;;;;;;8.01;nan;101419.50;5054775;28;20029;-53
2022/04/19 06:04:57;;;;;;;31.65;27.35;;;;;;;7.96;nan;101367.16;5054618;28;20095;-54
2022/04/19 06:07:23;;;;;;;28.58;23.95;;;;;;;8.42;nan;101423.38;5054635;28;20041;-52
2022/04/19 06:09:49;;;;;;;27.40;23.50;;;;;;;8.26;nan;101369.34;5054735;28;20029;-54
2022/04/19 06:12:15;;;;;;;25.67;22.85;;;;;;;8.29;nan;101366.69;5053442;28;20083;-53
2022/04/19 06:14:41;;;;;;;24.30;21.50;;;;;;;8.45;nan;101367.34;5054310;28;20086;-49
2022/04/19 06:17:06;;;;;;;24.98;20.15;;;;;;;8.99;nan;101439.09;5036170;28;20029;-49
2022/04/19 06:19:31;;;;;;;22.38;19.98;;;;;;;9.02;nan;101421.53;5054371;28;20120;-53
2022/04/19 06:21:57;;;;;;;22.42;19.65;;;;;;;9.34;nan;101456.91;5052864;28;20108;-48
2022/04/19 06:24:23;;;;;;;20.55;18.38;;;;;;;9.21;nan;101387.94;5054283;28;20052;-53
2022/04/19 06:26:48;;;;;;;20.08;17.83;;;;;;;9.38;nan;101379.75;5053033;28;20033;-57
2022/04/19 06:29:14;;;;;;;19.65;17.50;;;;;;;10.03;nan;101463.47;5052402;28;20037;-52
2022/04/19 06:31:43;;;;;;;17.38;15.30;;;;;;;10.19;nan;101464.03;5053613;28;20047;-51
2022/04/19 06:34:09;;;;;;;19.77;16.33;;;;;;;10.27;nan;101453.38;5053639;28;20474;-51
2022/04/19 06:36:34;;;;;;;20.40;16.00;;;;;;;10.20;nan;101412.28;5052746;28;20044;-47
2022/04/19 06:38:59;;;;;;;18.75;14.20;;;;;;;10.74;nan;101484.75;5052953;28;20044;-49
2022/04/19 06:41:25;;;;;;;16.63;13.80;;;;;;;10.86;nan;101488.88;5054174;28;20446;-53
2022/04/19 06:43:50;;;;;;;15.60;13.93;;;;;;;10.82;nan;101458.25;5052212;28;20482;-52
2022/04/19 06:46:17;;;;;;;16.50;13.93;;;;;;;11.17;nan;101489.88;5052353;28;20174;-51
2022/04/19 06:48:42;;;;;;;15.93;14.32;;;;;;;11.29;nan;101492.22;5053861;28;20120;-49
2022/04/19 06:51:09;;;;;;;16.23;12.88;;;;;;;11.19;nan;101445.91;5053259;28;20191;-45
2022/04/19 06:53:36;;;;;;;15.38;13.68;;;;;;;11.67;nan;101500.03;5052535;28;20033;-47
2022/04/19 06:56:03;;;;;;;13.93;12.35;;;;;;;11.58;nan;101444.00;5053421;28;20533;-47
2022/04/19 06:58:28;;;;;;;17.23;13.23;;;;;;;12.06;nan;101492.81;5053768;28;20041;-46
2022/04/19 07:00:54;;;;;;;13.82;12.30;;;;;;;12.14;nan;101453.03;5053746;28;20041;-44
2022/04/19 07:03:19;;;;;;;14.32;12.63;;;;;;;12.87;nan;101500.03;5053234;28;20060;-46
2022/04/19 07:05:45;;;;;;;14.10;11.93;;;;;;;13.09;nan;101465.03;5053500;28;20473;-44
2022/04/19 07:08:11;;;;;;;13.65;11.23;;;;;;;13.67;nan;101474.50;5053546;28;20029;-45
2022/04/19 07:10:37;;;;;;;13.95;11.45;;;;;;;14.72;nan;101525.34;5053652;28;20029;-45
2022/04/19 07:13:03;;;;;;;12.68;11.48;;;;;;;15.35;nan;101542.28;5053545;28;20033;-47
2022/04/19 07:15:29;;;;;;;16.02;11.57;;;;;;;16.08;nan;101524.97;5053539;28;20119;-45
2022/04/19 07:17:54;;;;;;;13.73;11.45;;;;;;;;;;5053339;28;20084;-46
2022/04/19 07:28:35;;;;;;;14.80;11.95;;;;;;;16.13;nan;101499.09;5051721;28;20187;-47
2022/04/19 07:31:01;;;;;;;11.80;10.60;;;;;;;15.95;nan;101541.50;5052943;28;20040;-46
2022/04/19 07:33:27;;;;;;;13.10;11.23;;;;;;;15.92;nan;101549.59;5051648;28;20037;-47
2022/04/19 07:35:55;;;;;;;13.23;11.70;;;;;;;15.28;nan;101488.63;5052617;28;20043;-48
2022/04/19 07:38:20;;;;;;;12.02;10.80;;;;;;;15.74;nan;101551.25;5051893;28;20040;-52
2022/04/19 07:40:46;;;;;;;11.10;9.57;;;;;;;15.58;nan;101492.69;5051951;28;20048;-47
2022/04/19 07:43:11;;;;;;;11.18;10.10;;;;;;;16.28;nan;101545.34;5052309;28;20037;-51
2022/04/19 07:45:37;;;;;;;13.00;10.60;;;;;;;16.42;nan;101526.13;5052181;28;20074;-48
2022/04/19 07:48:04;;;;;;;11.27;10.10;;;;;;;16.56;nan;101502.44;5052158;28;20482;-47
2022/04/19 07:50:29;;;;;;;12.05;10.43;;;;;;;16.43;nan;101493.31;5051947;28;20039;-48
2022/04/19 07:52:55;;;;;;;12.02;10.82;;;;;;;16.81;nan;101537.63;5051779;28;20033;-45
2022/04/19 07:55:21;;;;;;;12.10;10.23;;;;;;;16.60;nan;101474.81;5051019;28;20076;-46
2022/04/19 07:57:46;;;;;;;11.63;10.52;;;;;;;16.90;nan;101533.66;5050837;28;20044;-45
2022/04/19 08:00:13;;;;;;;10.90;9.80;;;;;;;17.20;nan;101535.69;5050648;28;20091;-48
2022/04/19 08:02:39;;;;;;;11.70;9.93;;;;;;;17.54;nan;101540.22;5051509;28;20040;-47
2022/04/19 08:05:04;;;;;;;12.50;10.45;;;;;;;18.03;nan;101543.06;5050216;28;20048;-46
2022/04/19 08:07:30;;;;;;;11.57;10.23;;;;;;;18.31;nan;101490.88;5066953;28;20136;-46
2022/04/19 08:09:58;;;;;;;11.43;9.98;;;;;;;18.87;nan;101487.78;5051347;28;20040;-46
2022/04/19 08:12:24;;;;;;;10.60;9.50;;;;;;;19.66;nan;101539.28;5052213;28;20065;-49
2022/04/19 08:14:50;;;;;;;11.00;9.75;;;;;;;19.87;nan;101546.03;5050116;28;20036;-47
2022/04/19 08:17:15;;;;;;;12.05;9.75;;;;;;;19.67;nan;101541.84;5050045;28;20163;-51
2022/04/19 08:19:41;;;;;;;9.48;8.50;;;;;;;20.18;nan;101551.22;5051272;28;20080;-50
2022/04/19 08:22:06;;;;;;;9.98;8.02;;;;;;;20.38;nan;101551.84;5051255;28;20374;-51
2022/04/19 08:24:31;;;;;;;10.38;8.30;;;;;;;20.63;nan;101539.53;5050963;28;20064;-45
2022/04/19 08:26:57;;;;;;;10.05;8.40;;;;;;;20.72;nan;101535.41;5051716;28;20033;-47
2022/04/19 08:29:22;;;;;;;11.10;7.97;;;;;;;20.48;nan;101464.75;5050947;28;20440;-46
2022/04/19 08:31:48;;;;;;;8.95;7.93;;;;;;;20.55;nan;101487.47;5050352;28;20076;-49
2022/04/19 08:34:14;;;;;;;9.65;7.05;;;;;;;20.35;nan;101491.41;5051251;28;20174;-47
2022/04/19 08:36:40;;;;;;;8.85;6.50;;;;;;;20.54;nan;101540.13;5050599;28;20167;-47
2022/04/19 08:39:05;;;;;;;9.07;5.43;;;;;;;19.41;nan;101405.50;5050300;28;20537;-49
2022/04/19 08:41:31;;;;;;;7.72;5.75;;;;;;;20.00;nan;101541.66;5049591;28;20033;-47
2022/04/19 08:43:56;;;;;;;7.38;5.65;;;;;;;19.93;nan;101547.47;5033539;28;20892;-45
2022/04/19 08:46:21;;;;;;;6.53;5.03;;;;;;;20.46;nan;101554.94;5051069;28;20045;-47
2022/04/19 08:48:47;;;;;;;7.28;5.43;;;;;;;20.78;nan;101551.91;5051730;28;20037;-45
2022/04/19 08:51:14;;;;;;;6.55;5.50;;;;;;;20.78;nan;101497.56;5050694;28;20116;-46
2022/04/19 08:59:07;;;;;;;4.85;4.32;;;;;;;;;;5049866;28;20083;-47
2022/04/19 09:01:34;;;;;;;8.60;4.80;;;;;;;23.21;nan;101495.72;5050589;28;20025;-46
2022/04/19 09:04:04;;;;;;;6.75;5.57;;;;;;;23.59;nan;101546.59;5048815;28;20128;-46
2022/04/19 09:06:53;;;;;;;5.60;4.70;;;;;;;23.79;nan;101545.13;5049487;28;20037;-45
2022/04/19 09:09:23;;;;;;;4.93;4.43;;;;;;;23.90;nan;101546.00;5053751;28;20037;-47
2022/04/19 09:11:49;;;;;;;5.68;4.82;;;;;;;24.06;nan;101548.34;5054907;28;20033;-48
2022/04/19 09:14:15;;;;;;;6.32;4.82;;;;;;;24.31;nan;101539.28;5055109;28;20091;-46
2022/04/19 09:16:40;;;;;;;6.45;5.15;;;;;;;23.98;nan;101483.56;5053498;28;20033;-46
2022/04/19 09:19:08;;;;;;;7.82;5.60;;;;;;;24.18;nan;101522.38;5053683;28;20532;-48
2022/04/19 09:21:38;;;;;;;7.45;6.22;;;;;;;23.94;nan;101511.66;5053902;28;20029;-47
2022/04/19 09:24:20;;;;;;;7.57;6.27;;;;;;;24.17;nan;101540.34;5053421;28;20029;-47
2022/04/19 09:26:46;;;;;;;8.05;5.80;;;;;;;24.38;nan;101500.97;5052633;28;20279;-49
2022/04/19 09:29:17;;;;;;;6.57;5.78;;;;;;;24.34;nan;101520.19;5035469;28;20055;-49
2022/04/19 09:31:42;;;;;;;7.45;5.70;;;;;;;24.34;nan;101477.16;5053674;28;20037;-46
2022/04/19 09:34:08;;;;;;;7.68;5.80;;;;;;;24.88;nan;101533.78;5053191;28;20102;-49
2022/04/19 09:36:33;;;;;;;6.07;5.43;;;;;;;24.74;nan;101507.94;5053570;28;20059;-46
2022/04/19 09:38:58;;;;;;;7.30;5.40;;;;;;;24.21;nan;101474.56;5053422;28;20029;-51
2022/04/19 09:41:31;;;;;;;7.55;5.57;;;;;;;24.17;nan;101485.72;5053398;28;20453;-47
2022/04/19 09:44:16;;;;;;;6.63;5.30;;;;;;;24.73;nan;101525.06;5054377;28;20536;-48
2022/04/19 09:47:01;;;;;;;7.63;5.82;;;;;;;24.91;nan;101512.00;5053629;28;20037;-47
2022/04/19 09:49:48;;;;;;;7.20;6.13;;;;;;;24.51;nan;101525.09;5053119;28;20033;-46
2022/04/19 09:52:22;;;;;;;6.68;5.20;;;;;;;24.51;nan;101520.56;5052633;28;20055;-50
2022/04/19 09:55:08;;;;;;;6.60;5.47;;;;;;;24.95;nan;101502.69;5053855;28;20029;-49
2022/04/19 09:57:36;;;;;;;6.78;5.85;;;;;;;25.16;nan;101484.72;5052269;28;20417;-53
2022/04/19 10:00:05;;;;;;;7.38;6.13;;;;;;;24.33;nan;101470.91;5051732;28;20072;-52
2022/04/19 10:08:10;;;;;;;6.72;5.47;;;;;;;25.12;nan;101464.44;5053622;28;20040;-49
2022/04/19 10:10:40;;;;;;;5.95;5.25;;;;;;;25.89;nan;101516.31;5052809;28;20532;-45
2022/04/19 10:13:06;;;;;;;6.70;5.95;;;;;;;25.69;nan;101467.63;5052537;28;20415;-46
2022/04/19 10:15:35;;;;;;;6.68;5.13;;;;;;;26.30;nan;101461.47;5052988;28;20138;-46
2022/04/19 10:18:04;;;;;;;6.57;5.80;;;;;;;27.10;nan;101498.25;5052017;28;20047;-47
2022/04/19 10:20:33;;;;;;;7.13;6.43;;;;;;;26.99;nan;101502.94;5053277;28;20045;-47
2022/04/19 10:23:03;;;;;;;7.05;5.90;;;;;;;27.43;nan;101507.84;5052019;28;20033;-49
2022/04/19 10:25:46;;;;;;;6.67;5.87;;;;;;;28.20;nan;101505.91;5054006;28;20406;-47
2022/04/19 10:28:11;;;;;;;9.35;6.35;;;;;;;28.39;nan;101510.44;5052454;28;20037;-48
2022/04/19 10:30:38;;;;;;;8.15;5.95;;;;;;;28.54;nan;101508.09;5054091;28;20113;-47
2022/04/19 10:33:41;;;;;;;7.50;5.95;;;;;;;28.81;nan;101503.53;5052509;28;20183;-44
2022/04/19 10:36:31;;;;;;;8.45;6.28;;;;;;;27.96;nan;101464.09;5053055;28;20109;-46
2022/04/19 10:39:12;;;;;;;6.95;6.22;;;;;;;27.30;nan;101513.50;5052429;28;20041;-47
2022/04/19 10:42:04;;;;;;;;;;;;;;;27.05;nan;101502.38;5054228;28;20029;-48
2022/04/19 10:44:36;;;;;;;6.78;6.00;;;;;;;27.28;nan;101515.50;5050249;28;19913;-48
2022/04/19 10:47:16;;;;;;;7.65;5.95;;;;;;;26.56;nan;101460.00;5051825;28;20044;-48
2022/04/19 10:50:04;;;;;;;7.10;6.40;;;;;;;26.75;nan;101451.94;5053412;28;20031;-45
2022/04/19 10:52:36;;;;;;;9.75;6.15;;;;;;;26.70;nan;101505.53;5051451;28;20120;-49
2022/04/19 10:55:02;;;;;;;7.22;6.40;;;;;;;26.45;nan;101514.09;5053986;28;20044;-47
2022/04/19 11:00:31;;;;;;;7.35;6.28;;;;;;;26.53;nan;101490.81;5052975;28;20055;-50
2022/04/19 11:02:57;;;;;;;8.32;7.10;;;;;;;27.07;nan;101503.94;5051134;28;20043;-49
2022/04/19 11:05:50;;;;;;;8.32;6.57;;;;;;;26.85;nan;101498.78;5051366;28;20442;-47
2022/04/19 11:08:24;;;;;;;9.23;6.65;;;;;;;27.02;nan;101500.81;5046012;28;20116;-49
2022/04/19 11:10:50;;;;;;;8.75;6.45;;;;;;;26.82;nan;101467.47;5051588;28;20140;-45
2022/04/19 11:13:16;;;;;;;7.85;6.65;;;;;;;25.63;nan;101405.28;5052287;28;20048;-49
2022/04/19 11:15:42;;;;;;;7.65;6.30;;;;;;;26.45;nan;101504.16;5051373;28;20047;-46
2022/04/19 11:18:24;;;;;;;8.43;6.80;;;;;;;26.48;nan;101509.28;5052292;28;20037;-49
2022/04/19 11:20:51;;;;;;;9.38;7.43;;;;;;;26.08;nan;101479.50;5052643;28;20033;-49
2022/04/19 11:23:20;;;;;;;9.32;7.43;;;;;;;26.16;nan;101513.94;5051762;28;20032;-50
2022/04/19 11:25:46;;;;;;;10.50;7.40;;;;;;;26.24;nan;101501.47;5050785;28;20028;-50
2022/04/19 11:28:11;;;;;;;9.40;7.13;;;;;;;25.62;nan;101460.19;5052525;28;20033;-51
2022/04/19 11:30:56;;;;;;;8.05;6.50;;;;;;;25.51;nan;101498.84;5051656;28;20432;-50
2022/04/19 11:33:22;;;;;;;8.52;7.10;;;;;;;25.74;nan;101502.28;5051358;28;20445;-49
2022/04/19 11:36:08;;;;;;;7.65;6.28;;;;;;;26.15;nan;101496.88;5051965;28;20125;-51
2022/04/19 11:38:53;;;;;;;11.98;6.55;;;;;;;26.44;nan;101493.50;5050817;28;20078;-49
2022/04/19 11:46:51;;;;;;;5.75;5.05;;;;;;;26.08;nan;101479.50;5051596;28;20048;-45
2022/04/19 11:49:16;;;;;;;8.73;6.25;;;;;;;26.27;nan;101497.66;5052448;28;20041;-46
2022/04/19 11:51:46;;;;;;;8.23;6.63;;;;;;;26.37;nan;101482.38;5052470;28;20037;-50
2022/04/19 11:54:18;;;;;;;9.63;6.68;;;;;;;26.54;nan;101472.78;5051351;28;20369;-45
2022/04/19 11:56:44;;;;;;;7.95;6.00;;;;;;;27.45;nan;101483.38;5050633;28;20551;-48
2022/04/19 11:59:09;;;;;;;7.47;6.10;;;;;;;27.73;nan;101418.41;5049578;28;20248;-49
2022/04/19 12:01:36;;;;;;;8.03;6.20;;;;;;;28.03;nan;101425.47;5050819;28;20037;-50
2022/04/19 12:04:09;;;;;;;6.78;5.70;;;;;;;27.86;nan;101418.97;5051077;28;20291;-54
2022/04/19 12:06:34;;;;;;;6.47;5.68;;;;;;;28.57;nan;101473.44;5051433;28;20041;-46
2022/04/19 12:09:01;;;;;;;7.95;6.88;;;;;;;28.86;nan;101473.28;5050351;28;20090;-48
2022/04/19 12:11:28;;;;;;;7.80;6.85;;;;;;;28.18;nan;101463.75;5052017;28;20037;-49
2022/04/19 12:13:54;;;;;;;8.45;6.88;;;;;;;27.34;nan;101444.66;5051449;28;20048;-50
2022/04/19 12:16:31;;;;;;;9.23;7.68;;;;;;;27.62;nan;101464.56;5049805;28;20052;-49
2022/04/19 12:19:03;;;;;;;9.65;6.53;;;;;;;27.73;nan;101423.81;5050300;28;20036;-51
2022/04/19 12:21:38;;;;;;;7.72;6.10;;;;;;;27.83;nan;101413.00;5051905;28;20397;-48